sensor_id;sensor_type;location;lat;lon;timestamp;P1;durP1;ratioP1;P2;durP2;ratioP2
29504;SDS011;16452;54.174;12.092;2022-10-22T00:00:08;27.08;;;20.33;;
29504;SDS011;16452;54.174;12.092;2022-10-22T00:02:38;28.02;;;20.02;;
29504;SDS011;16452;54.174;12.092;2022-10-22T00:05:03;26.67;;;19.98;;
29504;SDS011;16452;54.174;12.092;2022-10-22T00:07:30;29.02;;;20.35;;
29504;SDS011;16452;54.174;12.092;2022-10-22T00:09:56;30.90;;;20.33;;
29504;SDS011;16452;54.174;12.092;2022-10-22T00:12:22;29.50;;;20.45;;
29504;SDS011;16452;54.174;12.092;2022-10-22T00:14:48;29.40;;;20.10;;
29504;SDS011;16452;54.174;12.092;2022-10-22T00:17:15;27.92;;;20.13;;
29504;SDS011;16452;54.174;12.092;2022-10-22T00:19:42;24.75;;;19.88;;
29504;SDS011;16452;54.174;12.092;2022-10-22T00:22:08;29.80;;;19.45;;
29504;SDS011;16452;54.174;12.092;2022-10-22T00:24:36;29.15;;;20.15;;
29504;SDS011;16452;54.174;12.092;2022-10-22T00:27:04;30.77;;;20.83;;
29504;SDS011;16452;54.174;12.092;2022-10-22T00:29:32;30.73;;;20.52;;
29504;SDS011;16452;54.174;12.092;2022-10-22T00:31:58;27.90;;;20.40;;
29504;SDS011;16452;54.174;12.092;2022-10-22T00:34:23;27.58;;;20.65;;
29504;SDS011;16452;54.174;12.092;2022-10-22T00:36:50;25.75;;;20.17;;
29504;SDS011;16452;54.174;12.092;2022-10-22T00:39:18;28.50;;;20.50;;
29504;SDS011;16452;54.174;12.092;2022-10-22T00:41:46;31.45;;;20.60;;
29504;SDS011;16452;54.174;12.092;2022-10-22T00:50:13;26.40;;;20.45;;
29504;SDS011;16452;54.174;12.092;2022-10-22T00:53:10;29.13;;;21.27;;
29504;SDS011;16452;54.174;12.092;2022-10-22T00:55:40;28.92;;;20.23;;
29504;SDS011;16452;54.174;12.092;2022-10-22T00:58:09;28.25;;;20.85;;
29504;SDS011;16452;54.174;12.092;2022-10-22T01:00:36;29.75;;;20.92;;
29504;SDS011;16452;54.174;12.092;2022-10-22T01:03:02;30.45;;;20.45;;
29504;SDS011;16452;54.174;12.092;2022-10-22T01:05:30;32.05;;;21.67;;
29504;SDS011;16452;54.174;12.092;2022-10-22T01:08:03;29.30;;;21.73;;
29504;SDS011;16452;54.174;12.092;2022-10-22T01:13:48;30.40;;;20.95;;
29504;SDS011;16452;54.174;12.092;2022-10-22T01:16:29;28.13;;;21.08;;
29504;SDS011;16452;54.174;12.092;2022-10-22T01:22:49;30.30;;;21.65;;
29504;SDS011;16452;54.174;12.092;2022-10-22T01:25:40;32.65;;;21.70;;
29504;SDS011;16452;54.174;12.092;2022-10-22T01:31:12;30.02;;;21.33;;
29504;SDS011;16452;54.174;12.092;2022-10-22T01:33:40;33.33;;;22.33;;
29504;SDS011;16452;54.174;12.092;2022-10-22T01:36:10;30.25;;;20.48;;
29504;SDS011;16452;54.174;12.092;2022-10-22T01:38:38;33.00;;;21.30;;
29504;SDS011;16452;54.174;12.092;2022-10-22T01:41:05;37.22;;;21.42;;
29504;SDS011;16452;54.174;12.092;2022-10-22T01:43:32;30.00;;;22.30;;
29504;SDS011;16452;54.174;12.092;2022-10-22T01:45:59;29.23;;;22.60;;
29504;SDS011;16452;54.174;12.092;2022-10-22T01:51:51;29.70;;;21.77;;
29504;SDS011;16452;54.174;12.092;2022-10-22T01:54:45;33.03;;;21.67;;
29504;SDS011;16452;54.174;12.092;2022-10-22T01:57:58;30.30;;;22.02;;
29504;SDS011;16452;54.174;12.092;2022-10-22T02:00:47;32.72;;;22.60;;
29504;SDS011;16452;54.174;12.092;2022-10-22T02:03:24;35.13;;;23.35;;
29504;SDS011;16452;54.174;12.092;2022-10-22T02:06:06;32.78;;;22.90;;
29504;SDS011;16452;54.174;12.092;2022-10-22T02:08:42;32.47;;;24.00;;
29504;SDS011;16452;54.174;12.092;2022-10-22T02:11:11;35.00;;;24.05;;
29504;SDS011;16452;54.174;12.092;2022-10-22T02:13:48;37.40;;;23.48;;
29504;SDS011;16452;54.174;12.092;2022-10-22T02:16:22;34.45;;;24.38;;
29504;SDS011;16452;54.174;12.092;2022-10-22T02:18:56;35.13;;;23.15;;
29504;SDS011;16452;54.174;12.092;2022-10-22T02:21:25;36.85;;;24.02;;
29504;SDS011;16452;54.174;12.092;2022-10-22T02:23:55;36.53;;;24.15;;
29504;SDS011;16452;54.174;12.092;2022-10-22T02:26:27;35.85;;;24.00;;
29504;SDS011;16452;54.174;12.092;2022-10-22T02:32:32;33.95;;;24.52;;
29504;SDS011;16452;54.174;12.092;2022-10-22T02:35:05;35.08;;;23.90;;
29504;SDS011;16452;54.174;12.092;2022-10-22T02:37:34;33.85;;;22.63;;
29504;SDS011;16452;54.174;12.092;2022-10-22T02:40:00;32.45;;;22.75;;
29504;SDS011;16452;54.174;12.092;2022-10-22T02:42:27;30.45;;;21.88;;
29504;SDS011;16452;54.174;12.092;2022-10-22T02:44:53;36.15;;;22.58;;
29504;SDS011;16452;54.174;12.092;2022-10-22T02:47:19;31.00;;;21.70;;
29504;SDS011;16452;54.174;12.092;2022-10-22T02:49:45;30.80;;;22.45;;
29504;SDS011;16452;54.174;12.092;2022-10-22T02:52:10;31.25;;;21.73;;
29504;SDS011;16452;54.174;12.092;2022-10-22T02:54:36;30.10;;;21.75;;
29504;SDS011;16452;54.174;12.092;2022-10-22T02:57:02;30.40;;;22.17;;
29504;SDS011;16452;54.174;12.092;2022-10-22T02:59:28;29.55;;;21.75;;
29504;SDS011;16452;54.174;12.092;2022-10-22T03:01:53;30.85;;;22.02;;
29504;SDS011;16452;54.174;12.092;2022-10-22T03:04:19;33.28;;;21.55;;
29504;SDS011;16452;54.174;12.092;2022-10-22T03:06:45;30.92;;;22.13;;
29504;SDS011;16452;54.174;12.092;2022-10-22T03:09:12;34.65;;;22.00;;
29504;SDS011;16452;54.174;12.092;2022-10-22T03:11:38;30.05;;;21.00;;
29504;SDS011;16452;54.174;12.092;2022-10-22T03:14:04;35.35;;;22.65;;
29504;SDS011;16452;54.174;12.092;2022-10-22T03:16:30;28.10;;;21.35;;
29504;SDS011;16452;54.174;12.092;2022-10-22T03:18:56;29.20;;;21.23;;
29504;SDS011;16452;54.174;12.092;2022-10-22T03:21:27;32.70;;;22.63;;
29504;SDS011;16452;54.174;12.092;2022-10-22T03:24:09;30.20;;;21.63;;
29504;SDS011;16452;54.174;12.092;2022-10-22T03:26:40;31.80;;;22.40;;
29504;SDS011;16452;54.174;12.092;2022-10-22T03:29:08;33.95;;;21.92;;
29504;SDS011;16452;54.174;12.092;2022-10-22T03:31:36;31.13;;;22.23;;
29504;SDS011;16452;54.174;12.092;2022-10-22T03:34:02;30.08;;;21.77;;
29504;SDS011;16452;54.174;12.092;2022-10-22T03:36:28;33.15;;;22.50;;
29504;SDS011;16452;54.174;12.092;2022-10-22T03:38:54;27.83;;;21.42;;
29504;SDS011;16452;54.174;12.092;2022-10-22T03:41:20;31.80;;;23.30;;
29504;SDS011;16452;54.174;12.092;2022-10-22T03:43:46;31.38;;;21.27;;
29504;SDS011;16452;54.174;12.092;2022-10-22T03:46:15;31.75;;;22.20;;
29504;SDS011;16452;54.174;12.092;2022-10-22T03:48:41;34.22;;;22.45;;
29504;SDS011;16452;54.174;12.092;2022-10-22T03:51:06;33.05;;;22.48;;
29504;SDS011;16452;54.174;12.092;2022-10-22T03:53:32;35.53;;;23.85;;
29504;SDS011;16452;54.174;12.092;2022-10-22T03:55:58;31.00;;;22.02;;
29504;SDS011;16452;54.174;12.092;2022-10-22T03:58:23;32.13;;;22.88;;
29504;SDS011;16452;54.174;12.092;2022-10-22T04:00:49;32.28;;;24.02;;
29504;SDS011;16452;54.174;12.092;2022-10-22T04:03:15;38.15;;;24.25;;
29504;SDS011;16452;54.174;12.092;2022-10-22T04:05:40;32.55;;;23.70;;
29504;SDS011;16452;54.174;12.092;2022-10-22T04:08:06;33.15;;;23.98;;
29504;SDS011;16452;54.174;12.092;2022-10-22T04:10:32;32.28;;;24.10;;
29504;SDS011;16452;54.174;12.092;2022-10-22T04:12:58;32.95;;;23.17;;
29504;SDS011;16452;54.174;12.092;2022-10-22T04:15:24;36.67;;;24.65;;
29504;SDS011;16452;54.174;12.092;2022-10-22T04:17:52;34.95;;;24.98;;
29504;SDS011;16452;54.174;12.092;2022-10-22T04:20:18;38.10;;;25.88;;
29504;SDS011;16452;54.174;12.092;2022-10-22T04:22:43;38.25;;;25.35;;
29504;SDS011;16452;54.174;12.092;2022-10-22T04:25:09;36.10;;;24.15;;
29504;SDS011;16452;54.174;12.092;2022-10-22T04:27:35;38.05;;;25.38;;
29504;SDS011;16452;54.174;12.092;2022-10-22T04:30:02;33.90;;;25.05;;
29504;SDS011;16452;54.174;12.092;2022-10-22T04:32:30;37.35;;;24.75;;
29504;SDS011;16452;54.174;12.092;2022-10-22T04:34:56;38.85;;;25.80;;
29504;SDS011;16452;54.174;12.092;2022-10-22T04:37:22;37.53;;;25.58;;
29504;SDS011;16452;54.174;12.092;2022-10-22T04:39:48;41.58;;;26.90;;
29504;SDS011;16452;54.174;12.092;2022-10-22T04:42:13;38.38;;;26.60;;
29504;SDS011;16452;54.174;12.092;2022-10-22T04:44:39;38.53;;;26.98;;
29504;SDS011;16452;54.174;12.092;2022-10-22T04:47:05;37.10;;;26.63;;
29504;SDS011;16452;54.174;12.092;2022-10-22T04:49:30;39.75;;;26.70;;
29504;SDS011;16452;54.174;12.092;2022-10-22T04:51:56;46.13;;;27.48;;
29504;SDS011;16452;54.174;12.092;2022-10-22T04:54:22;38.88;;;26.77;;
29504;SDS011;16452;54.174;12.092;2022-10-22T04:56:48;40.17;;;27.83;;
29504;SDS011;16452;54.174;12.092;2022-10-22T04:59:13;47.20;;;28.77;;
29504;SDS011;16452;54.174;12.092;2022-10-22T05:01:40;47.17;;;30.38;;
29504;SDS011;16452;54.174;12.092;2022-10-22T05:04:08;52.75;;;30.70;;
29504;SDS011;16452;54.174;12.092;2022-10-22T05:06:39;44.67;;;29.27;;
29504;SDS011;16452;54.174;12.092;2022-10-22T05:09:07;46.67;;;30.25;;
29504;SDS011;16452;54.174;12.092;2022-10-22T05:11:39;41.90;;;28.48;;
29504;SDS011;16452;54.174;12.092;2022-10-22T05:14:09;42.63;;;29.33;;
29504;SDS011;16452;54.174;12.092;2022-10-22T05:16:35;47.38;;;29.25;;
29504;SDS011;16452;54.174;12.092;2022-10-22T05:19:04;46.38;;;29.88;;
29504;SDS011;16452;54.174;12.092;2022-10-22T05:21:31;47.08;;;29.38;;
29504;SDS011;16452;54.174;12.092;2022-10-22T05:23:57;48.88;;;29.58;;
29504;SDS011;16452;54.174;12.092;2022-10-22T05:26:24;44.67;;;29.52;;
29504;SDS011;16452;54.174;12.092;2022-10-22T05:28:51;43.78;;;28.50;;
29504;SDS011;16452;54.174;12.092;2022-10-22T05:31:17;44.08;;;28.98;;
29504;SDS011;16452;54.174;12.092;2022-10-22T05:33:44;43.00;;;28.75;;
29504;SDS011;16452;54.174;12.092;2022-10-22T05:36:14;44.10;;;29.33;;
29504;SDS011;16452;54.174;12.092;2022-10-22T05:38:43;47.70;;;28.85;;
29504;SDS011;16452;54.174;12.092;2022-10-22T05:41:14;44.95;;;29.50;;
29504;SDS011;16452;54.174;12.092;2022-10-22T05:43:46;43.78;;;28.92;;
29504;SDS011;16452;54.174;12.092;2022-10-22T05:46:16;46.60;;;28.90;;
29504;SDS011;16452;54.174;12.092;2022-10-22T05:48:49;46.75;;;28.73;;
29504;SDS011;16452;54.174;12.092;2022-10-22T05:51:16;50.15;;;29.42;;
29504;SDS011;16452;54.174;12.092;2022-10-22T05:53:42;48.20;;;30.00;;
29504;SDS011;16452;54.174;12.092;2022-10-22T05:56:14;48.65;;;29.20;;
29504;SDS011;16452;54.174;12.092;2022-10-22T05:58:40;46.78;;;29.35;;
29504;SDS011;16452;54.174;12.092;2022-10-22T06:01:18;49.95;;;30.33;;
29504;SDS011;16452;54.174;12.092;2022-10-22T06:03:51;48.42;;;31.25;;
29504;SDS011;16452;54.174;12.092;2022-10-22T06:06:20;49.88;;;30.60;;
29504;SDS011;16452;54.174;12.092;2022-10-22T06:08:53;53.55;;;29.40;;
29504;SDS011;16452;54.174;12.092;2022-10-22T06:11:20;53.38;;;30.02;;
29504;SDS011;16452;54.174;12.092;2022-10-22T06:13:47;45.28;;;28.60;;
29504;SDS011;16452;54.174;12.092;2022-10-22T06:16:14;47.35;;;29.38;;
29504;SDS011;16452;54.174;12.092;2022-10-22T06:18:40;50.70;;;29.88;;
29504;SDS011;16452;54.174;12.092;2022-10-22T06:21:06;48.38;;;29.98;;
29504;SDS011;16452;54.174;12.092;2022-10-22T06:23:35;50.53;;;30.13;;
29504;SDS011;16452;54.174;12.092;2022-10-22T06:26:03;51.47;;;29.60;;
29504;SDS011;16452;54.174;12.092;2022-10-22T06:28:30;46.75;;;29.17;;
29504;SDS011;16452;54.174;12.092;2022-10-22T06:30:57;44.95;;;29.52;;
29504;SDS011;16452;54.174;12.092;2022-10-22T06:33:25;53.97;;;31.17;;
29504;SDS011;16452;54.174;12.092;2022-10-22T06:35:52;46.72;;;29.75;;
29504;SDS011;16452;54.174;12.092;2022-10-22T06:38:17;47.35;;;29.45;;
29504;SDS011;16452;54.174;12.092;2022-10-22T06:40:43;45.60;;;29.15;;
29504;SDS011;16452;54.174;12.092;2022-10-22T06:43:12;47.88;;;30.13;;
29504;SDS011;16452;54.174;12.092;2022-10-22T06:45:38;46.45;;;29.73;;
29504;SDS011;16452;54.174;12.092;2022-10-22T06:48:04;46.55;;;30.45;;
29504;SDS011;16452;54.174;12.092;2022-10-22T06:50:32;49.20;;;31.58;;
29504;SDS011;16452;54.174;12.092;2022-10-22T06:52:59;49.70;;;30.30;;
29504;SDS011;16452;54.174;12.092;2022-10-22T06:55:24;50.00;;;30.58;;
29504;SDS011;16452;54.174;12.092;2022-10-22T06:57:50;49.50;;;30.73;;
29504;SDS011;16452;54.174;12.092;2022-10-22T07:00:16;47.30;;;30.80;;
29504;SDS011;16452;54.174;12.092;2022-10-22T07:02:42;46.20;;;29.77;;
29504;SDS011;16452;54.174;12.092;2022-10-22T07:05:08;48.40;;;29.95;;
29504;SDS011;16452;54.174;12.092;2022-10-22T07:07:33;44.70;;;29.17;;
29504;SDS011;16452;54.174;12.092;2022-10-22T07:09:59;44.22;;;29.38;;
29504;SDS011;16452;54.174;12.092;2022-10-22T07:12:25;43.25;;;30.15;;
29504;SDS011;16452;54.174;12.092;2022-10-22T07:14:51;47.42;;;30.67;;
29504;SDS011;16452;54.174;12.092;2022-10-22T07:17:16;43.75;;;29.05;;
29504;SDS011;16452;54.174;12.092;2022-10-22T07:19:42;44.13;;;29.25;;
29504;SDS011;16452;54.174;12.092;2022-10-22T07:22:08;47.63;;;29.42;;
29504;SDS011;16452;54.174;12.092;2022-10-22T07:24:36;46.17;;;29.90;;
29504;SDS011;16452;54.174;12.092;2022-10-22T07:27:01;43.72;;;29.73;;
29504;SDS011;16452;54.174;12.092;2022-10-22T07:29:27;48.28;;;31.60;;
29504;SDS011;16452;54.174;12.092;2022-10-22T07:31:53;46.38;;;30.17;;
29504;SDS011;16452;54.174;12.092;2022-10-22T07:34:19;43.60;;;28.63;;
29504;SDS011;16452;54.174;12.092;2022-10-22T07:36:44;42.53;;;28.75;;
29504;SDS011;16452;54.174;12.092;2022-10-22T07:39:10;44.97;;;30.17;;
29504;SDS011;16452;54.174;12.092;2022-10-22T07:41:36;45.50;;;29.88;;
29504;SDS011;16452;54.174;12.092;2022-10-22T07:44:01;42.25;;;29.08;;
29504;SDS011;16452;54.174;12.092;2022-10-22T07:46:27;47.30;;;28.40;;
29504;SDS011;16452;54.174;12.092;2022-10-22T07:48:53;39.58;;;27.40;;
29504;SDS011;16452;54.174;12.092;2022-10-22T07:51:19;40.42;;;27.63;;
29504;SDS011;16452;54.174;12.092;2022-10-22T07:53:44;42.15;;;28.80;;
29504;SDS011;16452;54.174;12.092;2022-10-22T07:56:10;40.78;;;27.92;;
29504;SDS011;16452;54.174;12.092;2022-10-22T07:58:36;43.70;;;28.92;;
29504;SDS011;16452;54.174;12.092;2022-10-22T08:01:02;42.00;;;27.75;;
29504;SDS011;16452;54.174;12.092;2022-10-22T08:03:29;40.72;;;28.15;;
29504;SDS011;16452;54.174;12.092;2022-10-22T08:05:56;41.53;;;27.70;;
29504;SDS011;16452;54.174;12.092;2022-10-22T08:08:22;40.35;;;28.45;;
29504;SDS011;16452;54.174;12.092;2022-10-22T08:10:50;35.33;;;23.70;;
29504;SDS011;16452;54.174;12.092;2022-10-22T08:13:18;31.67;;;22.13;;
29504;SDS011;16452;54.174;12.092;2022-10-22T08:15:44;32.00;;;21.52;;
29504;SDS011;16452;54.174;12.092;2022-10-22T08:18:11;35.88;;;26.20;;
29504;SDS011;16452;54.174;12.092;2022-10-22T08:20:37;36.50;;;26.98;;
29504;SDS011;16452;54.174;12.092;2022-10-22T08:23:03;37.83;;;26.75;;
29504;SDS011;16452;54.174;12.092;2022-10-22T08:25:29;40.03;;;27.17;;
29504;SDS011;16452;54.174;12.092;2022-10-22T08:27:55;43.85;;;28.38;;
29504;SDS011;16452;54.174;12.092;2022-10-22T08:30:21;39.20;;;28.35;;
29504;SDS011;16452;54.174;12.092;2022-10-22T08:32:46;39.28;;;27.50;;
29504;SDS011;16452;54.174;12.092;2022-10-22T08:35:12;36.03;;;26.92;;
29504;SDS011;16452;54.174;12.092;2022-10-22T08:37:38;38.50;;;26.55;;
29504;SDS011;16452;54.174;12.092;2022-10-22T08:40:04;41.03;;;26.58;;
29504;SDS011;16452;54.174;12.092;2022-10-22T08:50:55;38.15;;;27.10;;
29504;SDS011;16452;54.174;12.092;2022-10-22T08:53:25;42.42;;;27.42;;
29504;SDS011;16452;54.174;12.092;2022-10-22T08:56:02;42.15;;;28.05;;
29504;SDS011;16452;54.174;12.092;2022-10-22T08:58:29;42.50;;;28.10;;
29504;SDS011;16452;54.174;12.092;2022-10-22T09:01:22;41.78;;;28.02;;
29504;SDS011;16452;54.174;12.092;2022-10-22T09:04:08;42.78;;;27.70;;
29504;SDS011;16452;54.174;12.092;2022-10-22T09:06:53;45.70;;;29.48;;
29504;SDS011;16452;54.174;12.092;2022-10-22T09:09:22;43.22;;;28.33;;
29504;SDS011;16452;54.174;12.092;2022-10-22T09:11:55;45.17;;;29.08;;
29504;SDS011;16452;54.174;12.092;2022-10-22T09:14:23;42.30;;;29.50;;
29504;SDS011;16452;54.174;12.092;2022-10-22T09:20:07;44.28;;;28.88;;
29504;SDS011;16452;54.174;12.092;2022-10-22T09:25:48;45.42;;;30.02;;
29504;SDS011;16452;54.174;12.092;2022-10-22T09:28:16;42.75;;;29.00;;
29504;SDS011;16452;54.174;12.092;2022-10-22T09:30:42;48.92;;;30.17;;
29504;SDS011;16452;54.174;12.092;2022-10-22T09:35:59;45.53;;;29.75;;
29504;SDS011;16452;54.174;12.092;2022-10-22T09:38:32;53.72;;;30.25;;
29504;SDS011;16452;54.174;12.092;2022-10-22T09:41:09;49.65;;;30.50;;
29504;SDS011;16452;54.174;12.092;2022-10-22T09:43:36;51.97;;;30.50;;
29504;SDS011;16452;54.174;12.092;2022-10-22T09:46:04;45.20;;;29.88;;
29504;SDS011;16452;54.174;12.092;2022-10-22T09:48:39;44.58;;;29.67;;
29504;SDS011;16452;54.174;12.092;2022-10-22T09:54:12;47.53;;;29.15;;
29504;SDS011;16452;54.174;12.092;2022-10-22T09:57:05;48.92;;;29.73;;
29504;SDS011;16452;54.174;12.092;2022-10-22T09:59:41;44.95;;;29.30;;
29504;SDS011;16452;54.174;12.092;2022-10-22T10:02:19;45.03;;;29.38;;
29504;SDS011;16452;54.174;12.092;2022-10-22T10:04:51;45.50;;;28.13;;
29504;SDS011;16452;54.174;12.092;2022-10-22T10:07:20;45.70;;;29.33;;
29504;SDS011;16452;54.174;12.092;2022-10-22T10:09:50;48.03;;;30.15;;
29504;SDS011;16452;54.174;12.092;2022-10-22T10:15:12;46.58;;;28.75;;
29504;SDS011;16452;54.174;12.092;2022-10-22T10:21:25;42.05;;;26.23;;
29504;SDS011;16452;54.174;12.092;2022-10-22T10:27:12;38.13;;;26.20;;
29504;SDS011;16452;54.174;12.092;2022-10-22T10:30:16;37.75;;;25.55;;
29504;SDS011;16452;54.174;12.092;2022-10-22T10:35:57;35.35;;;22.23;;
29504;SDS011;16452;54.174;12.092;2022-10-22T10:41:38;35.95;;;24.67;;
29504;SDS011;16452;54.174;12.092;2022-10-22T10:50:23;31.73;;;21.83;;
29504;SDS011;16452;54.174;12.092;2022-10-22T10:53:15;33.25;;;22.52;;
29504;SDS011;16452;54.174;12.092;2022-10-22T11:11:05;35.70;;;21.30;;
29504;SDS011;16452;54.174;12.092;2022-10-22T11:16:39;32.05;;;19.83;;
29504;SDS011;16452;54.174;12.092;2022-10-22T11:19:19;31.75;;;20.10;;
29504;SDS011;16452;54.174;12.092;2022-10-22T11:22:00;29.42;;;20.15;;
29504;SDS011;16452;54.174;12.092;2022-10-22T11:24:42;29.42;;;18.67;;
29504;SDS011;16452;54.174;12.092;2022-10-22T11:27:28;26.00;;;18.48;;
29504;SDS011;16452;54.174;12.092;2022-10-22T11:30:13;25.17;;;17.35;;
29504;SDS011;16452;54.174;12.092;2022-10-22T11:32:55;30.02;;;18.77;;
29504;SDS011;16452;54.174;12.092;2022-10-22T11:35:27;32.53;;;18.40;;
29504;SDS011;16452;54.174;12.092;2022-10-22T11:37:59;27.70;;;17.88;;
29504;SDS011;16452;54.174;12.092;2022-10-22T11:40:31;27.88;;;19.00;;
29504;SDS011;16452;54.174;12.092;2022-10-22T11:43:04;32.17;;;18.95;;
29504;SDS011;16452;54.174;12.092;2022-10-22T11:45:36;29.83;;;19.00;;
29504;SDS011;16452;54.174;12.092;2022-10-22T11:58:26;44.10;;;30.98;;
29504;SDS011;16452;54.174;12.092;2022-10-22T12:00:53;42.47;;;30.73;;
29504;SDS011;16452;54.174;12.092;2022-10-22T12:14:23;36.30;;;26.20;;
29504;SDS011;16452;54.174;12.092;2022-10-22T12:19:41;28.52;;;22.52;;
29504;SDS011;16452;54.174;12.092;2022-10-22T12:24:48;28.35;;;23.33;;
29504;SDS011;16452;54.174;12.092;2022-10-22T12:27:23;26.92;;;21.98;;
29504;SDS011;16452;54.174;12.092;2022-10-22T12:30:17;29.02;;;24.33;;
29504;SDS011;16452;54.174;12.092;2022-10-22T12:32:56;29.33;;;22.45;;
29504;SDS011;16452;54.174;12.092;2022-10-22T12:35:33;29.08;;;24.15;;
29504;SDS011;16452;54.174;12.092;2022-10-22T12:38:11;28.65;;;23.70;;
29504;SDS011;16452;54.174;12.092;2022-10-22T12:40:40;30.63;;;25.38;;
29504;SDS011;16452;54.174;12.092;2022-10-22T12:43:10;31.25;;;24.73;;
29504;SDS011;16452;54.174;12.092;2022-10-22T12:45:40;32.40;;;25.48;;
29504;SDS011;16452;54.174;12.092;2022-10-22T12:48:13;36.67;;;27.42;;
29504;SDS011;16452;54.174;12.092;2022-10-22T12:50:48;38.85;;;29.20;;
29504;SDS011;16452;54.174;12.092;2022-10-22T12:53:21;63.63;;;28.33;;
29504;SDS011;16452;54.174;12.092;2022-10-22T12:56:02;73.82;;;30.58;;
29504;SDS011;16452;54.174;12.092;2022-10-22T12:58:37;44.08;;;31.48;;
29504;SDS011;16452;54.174;12.092;2022-10-22T13:01:12;51.38;;;30.00;;
29504;SDS011;16452;54.174;12.092;2022-10-22T13:03:48;211.85;;;29.00;;
29504;SDS011;16452;54.174;12.092;2022-10-22T13:06:27;39.45;;;29.73;;
29504;SDS011;16452;54.174;12.092;2022-10-22T13:08:57;206.70;;;29.77;;
29504;SDS011;16452;54.174;12.092;2022-10-22T13:11:40;44.28;;;29.10;;
29504;SDS011;16452;54.174;12.092;2022-10-22T13:14:30;57.53;;;27.88;;
29504;SDS011;16452;54.174;12.092;2022-10-22T13:17:09;41.63;;;28.23;;
29504;SDS011;16452;54.174;12.092;2022-10-22T13:20:03;134.10;;;29.23;;
29504;SDS011;16452;54.174;12.092;2022-10-22T13:22:55;98.95;;;28.08;;
29504;SDS011;16452;54.174;12.092;2022-10-22T13:25:30;68.88;;;30.10;;
29504;SDS011;16452;54.174;12.092;2022-10-22T13:30:52;48.17;;;28.88;;
29504;SDS011;16452;54.174;12.092;2022-10-22T13:33:32;179.23;;;32.63;;
29504;SDS011;16452;54.174;12.092;2022-10-22T13:36:07;91.55;;;33.83;;
29504;SDS011;16452;54.174;12.092;2022-10-22T13:38:38;53.38;;;33.50;;
29504;SDS011;16452;54.174;12.092;2022-10-22T13:41:15;339.35;;;32.67;;
29504;SDS011;16452;54.174;12.092;2022-10-22T13:43:47;133.02;;;35.53;;
29504;SDS011;16452;54.174;12.092;2022-10-22T13:46:13;356.55;;;32.80;;
29504;SDS011;16452;54.174;12.092;2022-10-22T13:48:39;140.23;;;31.80;;
29504;SDS011;16452;54.174;12.092;2022-10-22T13:51:09;473.75;;;30.02;;
29504;SDS011;16452;54.174;12.092;2022-10-22T13:53:46;362.33;;;31.90;;
29504;SDS011;16452;54.174;12.092;2022-10-22T13:56:14;247.23;;;30.48;;
29504;SDS011;16452;54.174;12.092;2022-10-22T13:58:42;199.23;;;31.83;;
29504;SDS011;16452;54.174;12.092;2022-10-22T14:01:14;599.72;;;33.60;;
29504;SDS011;16452;54.174;12.092;2022-10-22T14:03:51;396.80;;;30.60;;
29504;SDS011;16452;54.174;12.092;2022-10-22T14:06:22;302.02;;;30.05;;
29504;SDS011;16452;54.174;12.092;2022-10-22T14:08:57;236.88;;;29.85;;
29504;SDS011;16452;54.174;12.092;2022-10-22T14:11:28;221.70;;;29.17;;
29504;SDS011;16452;54.174;12.092;2022-10-22T14:13:59;72.35;;;29.13;;
29504;SDS011;16452;54.174;12.092;2022-10-22T14:16:27;89.68;;;31.60;;
29504;SDS011;16452;54.174;12.092;2022-10-22T14:18:55;49.72;;;30.88;;
29504;SDS011;16452;54.174;12.092;2022-10-22T14:21:21;43.10;;;30.60;;
29504;SDS011;16452;54.174;12.092;2022-10-22T14:23:47;48.30;;;29.00;;
29504;SDS011;16452;54.174;12.092;2022-10-22T14:28:48;50.42;;;27.45;;
29504;SDS011;16452;54.174;12.092;2022-10-22T14:31:14;78.80;;;26.13;;
29504;SDS011;16452;54.174;12.092;2022-10-22T14:33:41;182.67;;;25.73;;
29504;SDS011;16452;54.174;12.092;2022-10-22T14:36:08;110.57;;;25.90;;
29504;SDS011;16452;54.174;12.092;2022-10-22T14:38:44;175.25;;;26.67;;
29504;SDS011;16452;54.174;12.092;2022-10-22T14:41:30;40.83;;;27.88;;
29504;SDS011;16452;54.174;12.092;2022-10-22T14:43:56;59.03;;;29.40;;
29504;SDS011;16452;54.174;12.092;2022-10-22T14:46:23;60.22;;;29.40;;
29504;SDS011;16452;54.174;12.092;2022-10-22T14:48:49;59.65;;;29.08;;
29504;SDS011;16452;54.174;12.092;2022-10-22T14:51:16;50.25;;;28.75;;
29504;SDS011;16452;54.174;12.092;2022-10-22T14:53:43;45.67;;;30.95;;
29504;SDS011;16452;54.174;12.092;2022-10-22T14:56:16;43.17;;;30.08;;
29504;SDS011;16452;54.174;12.092;2022-10-22T14:58:45;99.05;;;28.60;;
29504;SDS011;16452;54.174;12.092;2022-10-22T15:01:11;85.95;;;29.20;;
29504;SDS011;16452;54.174;12.092;2022-10-22T15:03:37;42.38;;;26.58;;
29504;SDS011;16452;54.174;12.092;2022-10-22T15:06:03;39.72;;;27.45;;
29504;SDS011;16452;54.174;12.092;2022-10-22T15:08:29;41.20;;;28.58;;
29504;SDS011;16452;54.174;12.092;2022-10-22T15:10:59;44.28;;;30.67;;
29504;SDS011;16452;54.174;12.092;2022-10-22T15:13:31;43.17;;;30.15;;
29504;SDS011;16452;54.174;12.092;2022-10-22T15:15:58;47.03;;;31.15;;
29504;SDS011;16452;54.174;12.092;2022-10-22T15:18:24;44.95;;;29.20;;
29504;SDS011;16452;54.174;12.092;2022-10-22T15:20:55;43.80;;;29.27;;
29504;SDS011;16452;54.174;12.092;2022-10-22T15:23:29;39.78;;;27.77;;
29504;SDS011;16452;54.174;12.092;2022-10-22T15:25:55;41.70;;;29.43;;
29504;SDS011;16452;54.174;12.092;2022-10-22T15:28:21;39.88;;;28.00;;
29504;SDS011;16452;54.174;12.092;2022-10-22T15:30:54;39.42;;;27.90;;
29504;SDS011;16452;54.174;12.092;2022-10-22T15:33:22;37.92;;;26.95;;
29504;SDS011;16452;54.174;12.092;2022-10-22T15:35:50;39.83;;;27.63;;
29504;SDS011;16452;54.174;12.092;2022-10-22T15:38:16;38.75;;;27.67;;
29504;SDS011;16452;54.174;12.092;2022-10-22T15:40:42;40.55;;;28.52;;
29504;SDS011;16452;54.174;12.092;2022-10-22T15:43:08;38.97;;;27.73;;
29504;SDS011;16452;54.174;12.092;2022-10-22T15:45:34;41.50;;;27.45;;
29504;SDS011;16452;54.174;12.092;2022-10-22T15:48:00;39.67;;;26.85;;
29504;SDS011;16452;54.174;12.092;2022-10-22T15:50:25;36.25;;;25.60;;
29504;SDS011;16452;54.174;12.092;2022-10-22T15:52:51;39.92;;;26.00;;
29504;SDS011;16452;54.174;12.092;2022-10-22T15:55:18;36.10;;;25.10;;
29504;SDS011;16452;54.174;12.092;2022-10-22T15:57:45;36.13;;;25.23;;
29504;SDS011;16452;54.174;12.092;2022-10-22T16:00:11;36.30;;;25.38;;
29504;SDS011;16452;54.174;12.092;2022-10-22T16:02:37;38.47;;;26.65;;
29504;SDS011;16452;54.174;12.092;2022-10-22T16:05:03;41.35;;;26.70;;
29504;SDS011;16452;54.174;12.092;2022-10-22T16:07:29;40.58;;;26.50;;
29504;SDS011;16452;54.174;12.092;2022-10-22T16:09:56;38.60;;;26.90;;
29504;SDS011;16452;54.174;12.092;2022-10-22T16:12:23;43.10;;;27.98;;
29504;SDS011;16452;54.174;12.092;2022-10-22T16:14:50;44.33;;;28.85;;
29504;SDS011;16452;54.174;12.092;2022-10-22T16:17:16;47.13;;;28.40;;
29504;SDS011;16452;54.174;12.092;2022-10-22T16:19:42;41.95;;;28.08;;